Citadel — PBOK — position and weather

sailwx.info

Track history (hours):
 
Tides and Currents Weather Stations Pressure Air Temp Water Temp Dewpoint Dewpoint Depression Visibility Wind Speed Wind Dir Waves Ship Positions

Citadel

Last reported at 2016-May-28 22:31 UTC. Time now 2016-May-30 16:28 UTC.
Position N 48°54' W 005°41'.

Length 111 m; draft 5.1 m.

Type: Cargo ship. MMSI: 245977000.

Date/timePositionNaut miles runAvg speedWind from/ knotsBaromVisibWave heightAir tempDewpointWater temp
2016-May-28 22:31N 48°54' W 005°41'1111.0
2016-May-28 21:33N 48°60' W 005°27'1110.8
2016-May-28 20:33N 49°05' W 005°13'1110.7
2016-May-28 19:31N 49°11' W 004°58'6411.8
2016-May-28 14:06N 49°43' W 003°34'611.6
2016-May-28 13:34N 49°46' W 003°25'1111.0
2016-May-28 12:34N 49°52' W 003°11'1110.5
2016-May-28 11:33N 49°57' W 002°56'1010.2
2016-May-28 10:34N 50°00' W 002°41'7712.6
2016-May-28 04:27N 50°21' W 000°45'1112.4
2016-May-28 03:33N 50°24' W 000°29'1211.5
2016-May-28 02:33N 50°27' W 000°11'1010.5
2016-May-28 01:34N 50°30' E 000°05'10 9.7
2016-May-28 00:32N 50°33' E 000°20'1410.0
2016-May-27 23:06N 50°38' E 000°41'811.4
2016-May-27 22:25N 50°42' E 000°51'1112.5
2016-May-27 21:33N 50°48' E 001°05'1312.9
2016-May-27 20:33N 50°57' E 001°21'1212.3
2016-May-27 19:33N 51°05' E 001°34'1110.8
2016-May-27 18:33N 51°13' E 001°46'1010.1
2016-May-27 17:33N 51°22' E 001°55'10 9.8
2016-May-27 16:33N 51°30' E 002°03'1010.3
2016-May-27 15:33N 51°38' E 002°14'1111.0
2016-May-27 14:33N 51°46' E 002°26'1212.1
2016-May-27 13:33N 51°55' E 002°39'12811.7
2016-May-27 02:33N 53°32' E 004°57'1212.4
2016-May-27 01:34N 53°36' E 005°17'1111.5
2016-May-27 00:34N 53°40' E 005°35'1110.7
2016-May-26 23:33N 53°43' E 005°52'1010.3
2016-May-26 22:33N 53°47' E 006°09'1010.4
2016-May-26 21:33N 53°50' E 006°26'1110.9
2016-May-26 20:33N 53°52' E 006°44'1212.0
2016-May-26 19:34N 53°55' E 007°03'1313.2
2016-May-26 18:33N 53°59' E 007°25'1212.0
2016-May-26 17:33N 54°01' E 007°45'1312.8
2016-May-26 16:34N 54°01' E 008°07'1313.2
2016-May-26 15:34N 53°59' E 008°29'1010.2
2016-May-26 14:33N 53°53' E 008°43'9 8.5
2016-May-26 13:33N 53°51' E 008°57'7 7.4
2016-May-26 12:34N 53°54' E 009°09'1 0.8
2016-May-26 11:33N 53°54' E 009°10'7 6.6
2016-May-26 10:33N 53°59' E 009°17'9 8.6
2016-May-26 09:30N 54°08' E 009°20'8 8.3
2016-May-26 08:34N 54°12' E 009°32'8 7.6
2016-May-26 07:33N 54°18' E 009°40'9 4.7
2016-May-26 05:34N 54°21' E 009°56'7 7.4
2016-May-26 04:34N 54°22' E 010°08'3 3.2
2016-May-26 03:34N 54°24' E 010°12'9 9.4
2016-May-26 02:34N 54°31' E 010°23'8 8.3
2016-May-26 01:33N 54°35' E 010°36'9 8.6
2016-May-26 00:34N 54°35' E 010°51'9 8.9
2016-May-25 23:33N 54°36' E 011°06'9 8.5
2016-May-25 22:34N 54°34' E 011°20'9 8.6
2016-May-25 21:34N 54°30' E 011°34'9 9.2
2016-May-25 20:33N 54°27' E 011°48'9 9.0
2016-May-25 19:33N 54°27' E 012°04'9 8.6
2016-May-25 18:33N 54°34' E 012°13'9 9.3
2016-May-25 17:33N 54°40' E 012°24'10 9.9
2016-May-25 16:33N 54°46' E 012°38'1010.3
2016-May-25 15:34N 54°50' E 012°55'1010.3
2016-May-25 14:33N 54°53' E 013°12'1010.2
2016-May-25 13:33N 54°56' E 013°29'1010.2
2016-May-25 12:34N 54°59' E 013°45'1010.5
2016-May-25 11:33N 55°03' E 014°02'1010.1
2016-May-25 10:33N 55°10' E 014°15'1010.3
2016-May-25 09:33N 55°18' E 014°26'1010.2
2016-May-25 08:33N 55°26' E 014°38'1110.6
2016-May-25 07:34N 55°29' E 014°56'1110.7
2016-May-25 06:33N 55°32' E 015°14'1110.9
2016-May-25 05:33N 55°35' E 015°33'1010.5
2016-May-25 04:33N 55°39' E 015°50'1010.4
2016-May-25 03:33N 55°42' E 016°08'1010.1
2016-May-25 02:33N 55°45' E 016°26'1010.2
2016-May-25 01:34N 55°48' E 016°43'1010.1
2016-May-25 00:33N 55°51' E 016°60'1010.2
2016-May-24 23:33N 55°54' E 017°17'1010.3
2016-May-24 22:33N 55°57' E 017°35'3610.5
2016-May-24 19:07N 56°07' E 018°37'  
2016-May-22 03:30N 56°09' E 018°48'6811.4
2016-May-21 21:32N 55°48' E 016°52'1211.3
2016-May-21 20:28N 55°45' E 016°31'2311.4
2016-May-21 18:27N 55°38' E 015°53'1011.4
2016-May-21 17:34N 55°35' E 015°36'1211.5
2016-May-21 16:34N 55°31' E 015°16'1211.5
2016-May-21 15:34N 55°27' E 014°57'1111.4
2016-May-21 14:34N 55°22' E 014°39'1111.1
2016-May-21 13:34N 55°14' E 014°26'1111.4
2016-May-21 12:33N 55°06' E 014°13'1111.2
2016-May-21 11:34N 54°60' E 013°56'1211.4
2016-May-21 10:33N 54°56' E 013°37'1111.4
2016-May-21 09:34N 54°51' E 013°19'1311.4
2016-May-21 08:25N 54°46' E 012°58'911.1
2016-May-21 07:33N 54°42' E 012°44'1511.4
2016-May-21 06:15N 54°33' E 012°23'811.3
2016-May-21 05:33N 54°27' E 012°14'1010.1
2016-May-21 04:34N 54°25' E 011°57'1110.8
2016-May-21 03:33N 54°27' E 011°39'1110.8
2016-May-21 02:34N 54°31' E 011°22'1110.8
2016-May-21 01:33N 54°35' E 011°04'1211.9
2016-May-21 00:33N 54°34' E 010°44'1211.8
2016-May-20 23:33N 54°31' E 010°24'1110.7
2016-May-20 22:33N 54°23' E 010°12'2 2.1
2016-May-20 21:33N 54°22' E 010°09'5 4.9
2016-May-20 20:33N 54°21' E 010°00'8 7.7
2016-May-20 19:33N 54°22' E 009°47'8 7.8
2016-May-20 18:33N 54°16' E 009°38'4 3.7
2016-May-20 17:30N 54°12' E 009°34'8 8.3
2016-May-20 16:31N 54°09' E 009°22'8 7.9
2016-May-20 15:33N 54°02' E 009°18'8 8.0
2016-May-20 14:33N 53°55' E 009°11'0 0.2
2016-May-20 13:33N 53°55' E 009°11'0 0.0
2016-May-20 12:33N 53°55' E 009°11'0 0.0
2016-May-20 11:33N 53°55' E 009°11'0 0.0
2016-May-20 10:33N 53°55' E 009°11'2 1.8
2016-May-20 09:33N 53°54' E 009°09'5 5.0
2016-May-20 08:33N 53°51' E 009°01'1211.9
2016-May-20 07:33N 53°54' E 008°41'1312.7
2016-May-20 06:34N 53°59' E 008°22'1111.1
2016-May-20 05:33N 53°59' E 008°03'9 9.2
2016-May-20 04:34N 53°56' E 007°48'8 8.4
2016-May-20 03:33N 53°55' E 007°33'8 8.0
2016-May-20 02:34N 53°53' E 007°20'9 8.6
2016-May-20 01:34N 53°51' E 007°06'9 8.9
2016-May-20 00:33N 53°48' E 006°52'9 9.1
2016-May-19 23:34N 53°46' E 006°37'10 9.8
2016-May-19 22:33N 53°44' E 006°20'1010.4
2016-May-19 21:34N 53°41' E 006°04'1111.1
2016-May-19 20:34N 53°37' E 005°46'1111.0
2016-May-19 19:34N 53°33' E 005°29'1211.9
2016-May-19 18:33N 53°30' E 005°09'2911.9
2016-May-19 16:08N 53°11' E 004°32'712.8
2016-May-19 15:33N 53°05' E 004°26'1613.0
2016-May-19 14:17N 52°50' E 004°13'912.8
2016-May-19 13:33N 52°43' E 004°04'1612.3
2016-May-19 12:18N 52°35' E 003°42'6511.3
2016-May-19 06:33N 52°09' E 002°05'1110.7
2016-May-19 05:33N 52°05' E 001°49'1110.6
2016-May-19 04:33N 51°59' E 001°34'2 2.3
2016-May-19 03:32N 51°58' E 001°31'0 0.1
2016-May-19 02:32N 51°58' E 001°31'0 0.0
2016-May-19 01:31N 51°58' E 001°31'0 0.0
2016-May-19 00:31N 51°58' E 001°31'0 0.0
2016-May-18 23:33N 51°58' E 001°31'0 0.0
2016-May-18 22:33N 51°58' E 001°31'  
Track history (hours):
 
Tides and Currents Weather Stations Pressure Air Temp Water Temp Dewpoint Dewpoint Depression Visibility Wind Speed Wind Dir Waves Ship Positions

Citadel

Last reported at 2016-May-28 22:31 UTC. Time now 2016-May-30 16:28 UTC.
Position N 48°54' W 005°41'.

Length 111 m; draft 5.1 m.

Type: Cargo ship. MMSI: 245977000.

Date/timePositionNaut miles runAvg speedWind from/ knotsBaromVisibWave heightAir tempDewpointWater temp
2016-May-28 22:31N 48°54' W 005°41'1111.0
2016-May-28 21:33N 48°60' W 005°27'1110.8
2016-May-28 20:33N 49°05' W 005°13'1110.7
2016-May-28 19:31N 49°11' W 004°58'6411.8
2016-May-28 14:06N 49°43' W 003°34'611.6
2016-May-28 13:34N 49°46' W 003°25'1111.0
2016-May-28 12:34N 49°52' W 003°11'1110.5
2016-May-28 11:33N 49°57' W 002°56'1010.2
2016-May-28 10:34N 50°00' W 002°41'7712.6
2016-May-28 04:27N 50°21' W 000°45'1112.4
2016-May-28 03:33N 50°24' W 000°29'1211.5
2016-May-28 02:33N 50°27' W 000°11'1010.5
2016-May-28 01:34N 50°30' E 000°05'10 9.7
2016-May-28 00:32N 50°33' E 000°20'1410.0
2016-May-27 23:06N 50°38' E 000°41'811.4
2016-May-27 22:25N 50°42' E 000°51'1112.5
2016-May-27 21:33N 50°48' E 001°05'1312.9
2016-May-27 20:33N 50°57' E 001°21'1212.3
2016-May-27 19:33N 51°05' E 001°34'1110.8
2016-May-27 18:33N 51°13' E 001°46'1010.1
2016-May-27 17:33N 51°22' E 001°55'10 9.8
2016-May-27 16:33N 51°30' E 002°03'1010.3
2016-May-27 15:33N 51°38' E 002°14'1111.0
2016-May-27 14:33N 51°46' E 002°26'1212.1
2016-May-27 13:33N 51°55' E 002°39'12811.7
2016-May-27 02:33N 53°32' E 004°57'1212.4
2016-May-27 01:34N 53°36' E 005°17'1111.5
2016-May-27 00:34N 53°40' E 005°35'1110.7
2016-May-26 23:33N 53°43' E 005°52'1010.3
2016-May-26 22:33N 53°47' E 006°09'1010.4
2016-May-26 21:33N 53°50' E 006°26'1110.9
2016-May-26 20:33N 53°52' E 006°44'1212.0
2016-May-26 19:34N 53°55' E 007°03'1313.2
2016-May-26 18:33N 53°59' E 007°25'1212.0
2016-May-26 17:33N 54°01' E 007°45'1312.8
2016-May-26 16:34N 54°01' E 008°07'1313.2
2016-May-26 15:34N 53°59' E 008°29'1010.2
2016-May-26 14:33N 53°53' E 008°43'9 8.5
2016-May-26 13:33N 53°51' E 008°57'7 7.4
2016-May-26 12:34N 53°54' E 009°09'1 0.8
2016-May-26 11:33N 53°54' E 009°10'7 6.6
2016-May-26 10:33N 53°59' E 009°17'9 8.6
2016-May-26 09:30N 54°08' E 009°20'8 8.3
2016-May-26 08:34N 54°12' E 009°32'8 7.6
2016-May-26 07:33N 54°18' E 009°40'9 4.7
2016-May-26 05:34N 54°21' E 009°56'7 7.4
2016-May-26 04:34N 54°22' E 010°08'3 3.2
2016-May-26 03:34N 54°24' E 010°12'9 9.4
2016-May-26 02:34N 54°31' E 010°23'8 8.3
2016-May-26 01:33N 54°35' E 010°36'9 8.6
2016-May-26 00:34N 54°35' E 010°51'9 8.9
2016-May-25 23:33N 54°36' E 011°06'9 8.5
2016-May-25 22:34N 54°34' E 011°20'9 8.6
2016-May-25 21:34N 54°30' E 011°34'9 9.2
2016-May-25 20:33N 54°27' E 011°48'9 9.0
2016-May-25 19:33N 54°27' E 012°04'9 8.6
2016-May-25 18:33N 54°34' E 012°13'9 9.3
2016-May-25 17:33N 54°40' E 012°24'10 9.9
2016-May-25 16:33N 54°46' E 012°38'1010.3
2016-May-25 15:34N 54°50' E 012°55'1010.3
2016-May-25 14:33N 54°53' E 013°12'1010.2
2016-May-25 13:33N 54°56' E 013°29'1010.2
2016-May-25 12:34N 54°59' E 013°45'1010.5
2016-May-25 11:33N 55°03' E 014°02'1010.1
2016-May-25 10:33N 55°10' E 014°15'1010.3
2016-May-25 09:33N 55°18' E 014°26'1010.2
2016-May-25 08:33N 55°26' E 014°38'1110.6
2016-May-25 07:34N 55°29' E 014°56'1110.7
2016-May-25 06:33N 55°32' E 015°14'1110.9
2016-May-25 05:33N 55°35' E 015°33'1010.5
2016-May-25 04:33N 55°39' E 015°50'1010.4
2016-May-25 03:33N 55°42' E 016°08'1010.1
2016-May-25 02:33N 55°45' E 016°26'1010.2
2016-May-25 01:34N 55°48' E 016°43'1010.1
2016-May-25 00:33N 55°51' E 016°60'1010.2
2016-May-24 23:33N 55°54' E 017°17'1010.3
2016-May-24 22:33N 55°57' E 017°35'3610.5
2016-May-24 19:07N 56°07' E 018°37'  
2016-May-22 03:30N 56°09' E 018°48'6811.4
2016-May-21 21:32N 55°48' E 016°52'1211.3
2016-May-21 20:28N 55°45' E 016°31'2311.4
2016-May-21 18:27N 55°38' E 015°53'1011.4
2016-May-21 17:34N 55°35' E 015°36'1211.5
2016-May-21 16:34N 55°31' E 015°16'1211.5
2016-May-21 15:34N 55°27' E 014°57'1111.4
2016-May-21 14:34N 55°22' E 014°39'1111.1
2016-May-21 13:34N 55°14' E 014°26'1111.4
2016-May-21 12:33N 55°06' E 014°13'1111.2
2016-May-21 11:34N 54°60' E 013°56'1211.4
2016-May-21 10:33N 54°56' E 013°37'1111.4
2016-May-21 09:34N 54°51' E 013°19'1311.4
2016-May-21 08:25N 54°46' E 012°58'911.1
2016-May-21 07:33N 54°42' E 012°44'1511.4
2016-May-21 06:15N 54°33' E 012°23'811.3
2016-May-21 05:33N 54°27' E 012°14'1010.1
2016-May-21 04:34N 54°25' E 011°57'1110.8
2016-May-21 03:33N 54°27' E 011°39'1110.8
2016-May-21 02:34N 54°31' E 011°22'1110.8
2016-May-21 01:33N 54°35' E 011°04'1211.9
2016-May-21 00:33N 54°34' E 010°44'1211.8
2016-May-20 23:33N 54°31' E 010°24'1110.7
2016-May-20 22:33N 54°23' E 010°12'2 2.1
2016-May-20 21:33N 54°22' E 010°09'5 4.9
2016-May-20 20:33N 54°21' E 010°00'8 7.7
2016-May-20 19:33N 54°22' E 009°47'8 7.8
2016-May-20 18:33N 54°16' E 009°38'4 3.7
2016-May-20 17:30N 54°12' E 009°34'8 8.3
2016-May-20 16:31N 54°09' E 009°22'8 7.9
2016-May-20 15:33N 54°02' E 009°18'8 8.0
2016-May-20 14:33N 53°55' E 009°11'0 0.2
2016-May-20 13:33N 53°55' E 009°11'0 0.0
2016-May-20 12:33N 53°55' E 009°11'0 0.0
2016-May-20 11:33N 53°55' E 009°11'0 0.0
2016-May-20 10:33N 53°55' E 009°11'2 1.8
2016-May-20 09:33N 53°54' E 009°09'5 5.0
2016-May-20 08:33N 53°51' E 009°01'1211.9
2016-May-20 07:33N 53°54' E 008°41'1312.7
2016-May-20 06:34N 53°59' E 008°22'1111.1
2016-May-20 05:33N 53°59' E 008°03'9 9.2
2016-May-20 04:34N 53°56' E 007°48'8 8.4
2016-May-20 03:33N 53°55' E 007°33'8 8.0
2016-May-20 02:34N 53°53' E 007°20'9 8.6
2016-May-20 01:34N 53°51' E 007°06'9 8.9
2016-May-20 00:33N 53°48' E 006°52'9 9.1
2016-May-19 23:34N 53°46' E 006°37'10 9.8
2016-May-19 22:33N 53°44' E 006°20'1010.4
2016-May-19 21:34N 53°41' E 006°04'1111.1
2016-May-19 20:34N 53°37' E 005°46'1111.0
2016-May-19 19:34N 53°33' E 005°29'1211.9
2016-May-19 18:33N 53°30' E 005°09'2911.9
2016-May-19 16:08N 53°11' E 004°32'712.8
2016-May-19 15:33N 53°05' E 004°26'1613.0
2016-May-19 14:17N 52°50' E 004°13'912.8
2016-May-19 13:33N 52°43' E 004°04'1612.3
2016-May-19 12:18N 52°35' E 003°42'6511.3
2016-May-19 06:33N 52°09' E 002°05'1110.7
2016-May-19 05:33N 52°05' E 001°49'1110.6
2016-May-19 04:33N 51°59' E 001°34'2 2.3
2016-May-19 03:32N 51°58' E 001°31'0 0.1
2016-May-19 02:32N 51°58' E 001°31'0 0.0
2016-May-19 01:31N 51°58' E 001°31'0 0.0
2016-May-19 00:31N 51°58' E 001°31'0 0.0
2016-May-18 23:33N 51°58' E 001°31'0 0.0
2016-May-18 22:33N 51°58' E 001°31'  

Dump ship's entire track history